Time;durP1;ratioP1;P1;durP2;ratioP2;P2;SDS_P1;SDS_P2;PMS_P1;PMS_P2;Temp;Humidity;BMP_temperature;BMP_pressure;BME280_temperature;BME280_humidity;BME280_pressure;Samples;Min_cycle;Max_cycle;Signal;HPM_P1;HPM_P2
2022/07/20 00:01:26;;;;;;;4.05;2.50;;;;;;;26.14;47.26;101144.00;5071419;28;20047;-33
2022/07/20 00:03:54;;;;;;;4.78;2.38;;;;;;;26.09;47.46;101150.06;5071583;28;20094;-32
2022/07/20 00:06:23;;;;;;;4.75;2.28;;;;;;;26.01;47.92;101143.47;5071003;28;20524;-29
2022/07/20 00:11:36;;;;;;;4.55;2.33;;;;;;;25.90;48.12;101150.34;5071393;28;20123;-29
2022/07/20 00:14:05;;;;;;;3.75;2.40;;;;;;;25.87;47.99;101136.84;5070986;28;20050;-30
2022/07/20 00:16:34;;;;;;;3.72;1.92;;;;;;;25.86;47.46;101146.63;5071157;28;20048;-36
2022/07/20 00:19:03;;;;;;;3.67;2.35;;;;;;;25.84;47.25;101143.34;5071355;28;20568;-33
2022/07/20 00:21:33;;;;;;;4.72;2.42;;;;;;;25.84;46.56;101140.50;5069716;28;20098;-38
2022/07/20 00:24:00;;;;;;;3.53;2.30;;;;;;;25.84;46.36;101146.22;5071648;28;20055;-31
2022/07/20 00:26:28;;;;;;;4.15;2.47;;;;;;;25.84;45.23;101137.63;5071661;28;20416;-33
2022/07/20 00:28:56;;;;;;;7.25;2.70;;;;;;;25.88;44.56;101138.47;5070956;28;20059;-37
2022/07/20 00:31:24;;;;;;;6.57;2.88;;;;;;;25.95;44.03;101145.09;5070984;28;20491;-33
2022/07/20 00:33:52;;;;;;;7.00;2.80;;;;;;;26.03;43.17;101141.03;5071515;28;20513;-30
2022/07/20 00:36:20;;;;;;;4.30;2.38;;;;;;;26.07;43.12;101138.22;5070770;28;20382;-33
2022/07/20 00:38:49;;;;;;;5.18;2.42;;;;;;;26.14;42.56;101144.00;5071320;28;20057;-31
2022/07/20 00:41:20;;;;;;;5.13;2.25;;;;;;;26.17;42.59;101133.78;5071268;28;20055;-32
2022/07/20 00:44:00;;;;;;;3.78;2.60;;;;;;;26.19;42.60;101122.75;5071765;28;20076;-32
2022/07/20 00:46:31;;;;;;;3.22;2.40;;;;;;;26.16;42.97;101123.56;5071008;28;20044;-35
2022/07/20 00:48:59;;;;;;;6.32;2.60;;;;;;;26.15;42.91;101127.66;5071072;28;20106;-38
2022/07/20 00:51:28;;;;;;;3.47;2.78;;;;;;;26.15;42.83;101128.47;5071167;28;20094;-33
2022/07/20 00:53:58;;;;;;;6.00;2.88;;;;;;;26.16;42.72;101132.97;5071395;28;20045;-36
2022/07/20 00:56:25;;;;;;;5.25;2.40;;;;;;;26.15;43.47;101128.47;5070621;28;20052;-36
2022/07/20 00:58:53;;;;;;;3.80;2.70;;;;;;;26.12;43.73;101120.69;5071137;28;20145;-32
2022/07/20 01:01:22;;;;;;;6.45;3.00;;;;;;;26.07;43.81;101121.03;5070930;28;20127;-38
2022/07/20 01:03:50;;;;;;;3.72;2.55;;;;;;;26.00;44.64;101115.28;5070883;28;20048;-31
2022/07/20 01:06:18;;;;;;;5.25;2.78;;;;;;;25.91;45.12;101112.78;5070804;28;20040;-32
2022/07/20 01:08:48;;;;;;;6.28;2.85;;;;;;;25.86;45.23;101130.28;5070925;28;20040;-37
2022/07/20 01:11:18;;;;;;;6.47;2.80;;;;;;;25.82;45.91;101129.44;5070526;28;20048;-32
2022/07/20 01:13:46;;;;;;;4.30;2.22;;;;;;;25.77;45.95;101123.28;5070175;28;20151;-31
2022/07/20 01:16:14;;;;;;;5.65;3.05;;;;;;;25.69;46.80;101111.78;5071204;28;20048;-36
2022/07/20 01:18:42;;;;;;;5.70;2.80;;;;;;;25.61;46.96;101120.66;5070287;28;20055;-31
2022/07/20 01:21:11;;;;;;;3.83;2.97;;;;;;;25.52;47.86;101129.59;5070919;28;20136;-32
2022/07/20 01:23:39;;;;;;;5.35;3.13;;;;;;;25.41;48.19;101122.94;5070208;28;20082;-38
2022/07/20 01:26:07;;;;;;;5.20;2.97;;;;;;;25.35;48.64;101131.06;5070844;28;20132;-34
2022/07/20 01:28:35;;;;;;;4.05;2.60;;;;;;;25.33;49.12;101127.78;5070548;28;20466;-34
2022/07/20 01:31:03;;;;;;;4.78;2.70;;;;;;;25.28;49.41;101124.47;5070498;28;20063;-37
2022/07/20 01:33:31;;;;;;;4.05;2.70;;;;;;;25.20;50.01;101117.03;5072436;28;20151;-29
2022/07/20 01:35:59;;;;;;;3.90;2.72;;;;;;;25.13;50.32;101114.94;5074423;28;20159;-31
2022/07/20 01:38:28;;;;;;;4.43;2.92;;;;;;;25.05;50.98;101113.19;5073363;28;20044;-34
2022/07/20 01:40:56;;;;;;;3.95;2.65;;;;;;;24.96;51.40;101107.00;5074055;28;20501;-32
2022/07/20 01:43:24;;;;;;;4.43;2.90;;;;;;;24.87;52.01;101107.28;5074127;28;20048;-30
2022/07/20 01:45:51;;;;;;;4.30;2.80;;;;;;;24.77;52.62;101102.28;5073936;28;20045;-34
2022/07/20 01:48:19;;;;;;;3.83;2.60;;;;;;;24.70;52.91;101103.00;5073532;28;20057;-33
2022/07/20 01:50:47;;;;;;;3.72;2.92;;;;;;;24.65;53.64;101122.50;5074215;28;20512;-37
2022/07/20 01:53:15;;;;;;;6.38;3.00;;;;;;;24.57;54.17;101107.34;5073294;28;20040;-30
2022/07/20 01:55:44;;;;;;;3.60;2.70;;;;;;;24.50;54.86;101107.25;5063233;28;20053;-32
2022/07/20 01:58:12;;;;;;;4.43;2.70;;;;;;;24.45;54.78;101103.91;5073738;28;20132;-35
2022/07/20 02:00:40;;;;;;;5.53;2.67;;;;;;;24.41;54.95;101098.13;5073610;28;20394;-37
2022/07/20 02:03:08;;;;;;;4.70;2.75;;;;;;;24.35;55.43;101105.41;5073487;28;20127;-34
2022/07/20 02:05:36;;;;;;;4.80;2.72;;;;;;;24.27;56.39;101110.19;5074032;28;20485;-35
2022/07/20 02:08:03;;;;;;;4.85;2.95;;;;;;;24.22;57.00;101110.50;5073324;28;20051;-39
2022/07/20 02:10:32;;;;;;;5.75;2.80;;;;;;;24.15;57.88;101126.69;5073343;28;20515;-33
2022/07/20 02:13:01;;;;;;;3.15;2.65;;;;;;;24.08;58.50;101118.03;5073547;28;20047;-37
2022/07/20 02:18:15;;;;;;;3.90;2.92;;;;;;;23.95;59.31;101109.72;5073722;28;20051;-31
2022/07/20 02:20:43;;;;;;;5.22;3.10;;;;;;;23.93;59.09;101100.72;5073117;28;20508;-34
2022/07/20 02:23:12;;;;;;;6.30;3.10;;;;;;;23.90;59.14;101103.50;5073537;28;20052;-37
2022/07/20 02:25:40;;;;;;;4.78;3.17;;;;;;;23.84;59.55;101105.03;5073509;28;20061;-31
2022/07/20 02:28:09;;;;;;;5.38;2.90;;;;;;;23.80;59.59;101113.53;5073085;28;20361;-29
2022/07/20 02:30:38;;;;;;;5.45;3.10;;;;;;;23.75;59.83;101105.31;5072954;28;20032;-31
2022/07/20 02:33:06;;;;;;;4.45;2.90;;;;;;;23.72;60.01;101102.41;5073566;28;20040;-30
2022/07/20 02:35:34;;;;;;;4.18;2.70;;;;;;;23.67;60.00;101097.84;5072550;28;20147;-30
2022/07/20 02:38:01;;;;;;;6.38;3.58;;;;;;;23.63;60.58;101092.09;5073143;28;20044;-33
2022/07/20 02:40:29;;;;;;;4.40;2.90;;;;;;;23.57;60.51;101099.34;5072907;28;20128;-29
2022/07/20 02:42:57;;;;;;;6.80;3.00;;;;;;;23.51;60.71;101095.13;5072951;28;20055;-30
2022/07/20 02:45:26;;;;;;;5.22;3.40;;;;;;;23.46;60.99;101109.69;5071494;28;20053;-35
2022/07/20 02:47:58;;;;;;;5.05;3.35;;;;;;;23.40;61.00;101118.94;5073239;28;20052;-34
2022/07/20 02:50:25;;;;;;;;;;;;;;;23.31;61.72;101116.34;5073504;28;20052;-33
2022/07/20 02:52:53;;;;;;;4.05;2.78;;;;;;;23.27;60.52;101124.00;5073132;28;20307;-35
2022/07/20 02:55:21;;;;;;;5.30;3.47;;;;;;;23.27;60.58;101116.28;5072176;28;20414;-34
2022/07/20 02:57:49;;;;;;;5.28;3.30;;;;;;;23.29;60.37;101110.22;5072636;28;20536;-33
2022/07/20 03:00:17;;;;;;;5.22;3.10;;;;;;;23.26;60.45;101108.13;5072591;28;20037;-37
2022/07/20 03:02:46;;;;;;;5.93;2.97;;;;;;;23.23;60.39;101111.72;5072662;28;20056;-31
2022/07/20 03:05:14;;;;;;;4.15;3.05;;;;;;;23.21;60.19;101109.25;5072207;28;20041;-28
2022/07/20 03:07:42;;;;;;;3.63;2.90;;;;;;;23.18;60.00;101126.28;5072876;28;20067;-30
2022/07/20 03:10:11;;;;;;;8.27;3.42;;;;;;;23.15;60.05;101135.59;5071793;28;20561;-36
2022/07/20 03:12:38;;;;;;;4.63;3.10;;;;;;;23.12;59.62;101124.94;5072171;28;20504;-29
2022/07/20 03:15:08;;;;;;;7.78;3.72;;;;;;;23.07;59.33;101120.38;5072697;28;20071;-35
2022/07/20 03:17:42;;;;;;;6.65;3.75;;;;;;;23.05;59.39;101128.47;5071851;28;20139;-38
2022/07/20 03:20:13;;;;;;;3.97;2.90;;;;;;;23.00;59.21;101129.59;5072262;28;20067;-32
2022/07/20 03:22:41;;;;;;;9.43;4.63;;;;;;;22.96;60.04;101137.25;5072323;28;20132;-32
2022/07/20 03:25:10;;;;;;;5.25;3.58;;;;;;;22.91;60.83;101131.06;5072039;28;20060;-30
2022/07/20 03:27:38;;;;;;;6.97;4.30;;;;;;;22.85;62.47;101126.84;5068685;28;20050;-30
2022/07/20 03:30:07;;;;;;;8.02;4.50;;;;;;;22.81;67.65;101137.34;5072440;28;20056;-28
2022/07/20 03:32:35;;;;;;;10.48;7.05;;;;;;;22.78;71.81;101123.88;5071549;28;20064;-31
2022/07/20 03:35:04;;;;;;;13.23;7.35;;;;;;;22.76;75.64;101149.84;5071942;28;20386;-36
2022/07/20 03:37:33;;;;;;;11.40;6.95;;;;;;;22.75;78.24;101147.38;5071237;28;20758;-33
2022/07/20 03:40:03;;;;;;;14.43;7.95;;;;;;;22.70;81.61;101148.47;5071796;28;20044;-36
2022/07/20 03:42:31;;;;;;;13.68;8.25;;;;;;;22.69;83.40;101152.53;5071810;28;20044;-32
2022/07/20 03:44:59;;;;;;;12.55;9.27;;;;;;;22.64;86.28;101167.88;5071751;28;20043;-33
2022/07/20 03:47:27;;;;;;;14.52;9.60;;;;;;;22.61;89.06;101157.22;5071265;28;20127;-28
2022/07/20 03:49:55;;;;;;;14.27;8.73;;;;;;;22.58;90.56;101162.88;5071291;28;20509;-36
2022/07/20 03:52:23;;;;;;;23.77;11.07;;;;;;;22.55;92.68;101174.97;5071257;28;20044;-33
2022/07/20 03:54:52;;;;;;;14.82;9.35;;;;;;;22.53;93.69;101171.69;5071995;28;20509;-35
2022/07/20 03:57:20;;;;;;;15.75;10.20;;;;;;;22.49;95.25;101179.31;5070017;28;20485;-30
2022/07/20 03:59:48;;;;;;;17.30;9.98;;;;;;;22.47;96.39;101164.63;5060242;28;20052;-30
2022/07/20 04:02:16;;;;;;;17.17;10.35;;;;;;;22.44;97.79;101173.91;5071136;28;20155;-33
2022/07/20 04:04:46;;;;;;;18.17;11.55;;;;;;;22.39;99.08;101182.72;5071879;28;20092;-32
2022/07/20 04:07:14;;;;;;;14.77;10.23;;;;;;;22.37;99.18;101196.53;5071136;28;20124;-29
2022/07/20 04:09:45;;;;;;;15.43;9.93;;;;;;;22.36;99.44;101197.72;5071592;28;20129;-29
2022/07/20 04:12:17;;;;;;;18.15;10.98;;;;;;;22.33;100.00;101196.44;5071764;28;20413;-28
2022/07/20 04:14:45;;;;;;;;;;;;;;;22.28;100.00;101191.03;5069114;28;20412;-31
2022/07/20 04:17:14;;;;;;;19.05;11.32;;;;;;;22.22;100.00;101192.50;5071386;28;19956;-29
2022/07/20 04:19:42;;;;;;;18.85;11.05;;;;;;;22.24;100.00;101196.63;5070995;28;20056;-31
2022/07/20 04:22:10;;;;;;;16.25;11.52;;;;;;;22.27;100.00;101197.91;5071316;28;20048;-33
2022/07/20 04:24:38;;;;;;;19.42;11.52;;;;;;;22.26;100.00;101194.22;5071392;28;20072;-31
2022/07/20 04:27:06;;;;;;;17.63;11.40;;;;;;;22.28;100.00;101202.41;5070881;28;20040;-30
2022/07/20 04:29:35;;;;;;;18.77;13.18;;;;;;;22.27;100.00;101201.56;5070804;28;20050;-30
2022/07/20 04:32:04;;;;;;;18.77;12.35;;;;;;;22.26;100.00;101219.00;5069339;28;20055;-35
2022/07/20 04:34:31;;;;;;;21.92;14.10;;;;;;;22.23;100.00;101231.94;5069556;28;20045;-30
2022/07/20 04:37:06;;;;;;;24.85;14.60;;;;;;;22.21;100.00;101227.81;5070333;28;20048;-38
2022/07/20 04:39:34;;;;;;;19.50;14.02;;;;;;;22.19;100.00;101215.97;5070061;28;20127;-33
2022/07/20 04:42:02;;;;;;;19.17;13.82;;;;;;;22.18;100.00;101229.38;5069676;28;20151;-36
2022/07/20 04:44:30;;;;;;;22.83;14.45;;;;;;;22.17;100.00;101236.28;5069635;28;20051;-34
2022/07/20 04:46:59;;;;;;;27.58;16.55;;;;;;;22.17;100.00;101250.47;5070548;28;20052;-31
2022/07/20 04:49:27;;;;;;;24.98;15.52;;;;;;;22.11;100.00;101249.09;5069305;28;20182;-28
2022/07/20 04:51:55;;;;;;;27.13;16.90;;;;;;;22.09;100.00;101260.00;5070166;28;20127;-31
2022/07/20 04:54:22;;;;;;;22.77;15.10;;;;;;;22.07;100.00;101250.19;5069620;28;20142;-30
2022/07/20 04:56:51;;;;;;;26.73;16.40;;;;;;;22.04;100.00;101246.06;5069745;28;20053;-34
2022/07/20 04:59:19;;;;;;;27.20;17.30;;;;;;;21.98;100.00;101265.38;5069827;28;20048;-32
2022/07/20 05:01:46;;;;;;;26.95;16.58;;;;;;;21.95;100.00;101279.53;5069874;28;20059;-31
2022/07/20 05:04:16;;;;;;;26.70;17.63;;;;;;;21.95;100.00;101276.69;5069686;28;20410;-39
2022/07/20 05:06:44;;;;;;;25.55;17.77;;;;;;;21.91;100.00;101273.75;5068881;28;20123;-38
2022/07/20 05:09:12;;;;;;;28.00;17.73;;;;;;;21.88;100.00;101291.53;5071959;28;20505;-34
2022/07/20 05:11:40;;;;;;;39.38;20.88;;;;;;;21.88;100.00;101280.16;5074105;28;20203;-34
2022/07/20 05:14:09;;;;;;;28.98;19.00;;;;;;;21.86;100.00;101293.06;5074032;28;20059;-30
2022/07/20 05:16:37;;;;;;;29.38;18.35;;;;;;;21.85;100.00;101285.72;5073226;28;20453;-36
2022/07/20 05:19:06;;;;;;;32.20;19.75;;;;;;;21.84;100.00;101276.38;5073337;28;20053;-36
2022/07/20 05:21:41;;;;;;;28.83;18.38;;;;;;;21.85;100.00;101282.91;5073187;28;20055;-34
2022/07/20 05:24:09;;;;;;;29.52;18.77;;;;;;;21.84;100.00;101272.72;5073215;28;20098;-34
2022/07/20 05:26:37;;;;;;;32.72;19.90;;;;;;;21.87;100.00;101280.53;5073402;28;20052;-32
2022/07/20 05:29:05;;;;;;;28.13;18.25;;;;;;;21.87;100.00;101274.84;5073779;28;20524;-37
2022/07/20 05:31:33;;;;;;;30.50;20.90;;;;;;;21.88;100.00;101270.81;5072222;28;20520;-34
2022/07/20 05:34:01;;;;;;;28.15;19.40;;;;;;;21.88;100.00;101277.31;5073186;28;20114;-38
2022/07/20 05:36:29;;;;;;;30.95;19.30;;;;;;;21.91;100.00;101275.75;5073269;28;20463;-36
2022/07/20 05:38:58;;;;;;;30.88;21.00;;;;;;;21.92;100.00;101261.19;5073156;28;20485;-37
2022/07/20 05:41:27;;;;;;;31.80;20.52;;;;;;;21.93;100.00;101268.53;5073008;28;20044;-37
2022/07/20 05:43:55;;;;;;;32.13;21.33;;;;;;;21.94;100.00;101290.06;5072786;28;20055;-30
2022/07/20 05:46:22;;;;;;;28.02;19.80;;;;;;;21.94;100.00;101294.91;5072693;28;20131;-39
2022/07/20 05:48:50;;;;;;;32.20;20.55;;;;;;;21.96;100.00;101309.59;5073173;28;20120;-32
2022/07/20 05:51:19;;;;;;;29.30;20.08;;;;;;;21.97;100.00;101302.72;5070972;28;20049;-33
2022/07/20 05:53:59;;;;;;;31.83;20.05;;;;;;;21.97;100.00;101300.72;5073264;28;20048;-39
2022/07/20 05:56:27;;;;;;;29.15;18.55;;;;;;;22.03;100.00;101298.44;5072672;28;20072;-36
2022/07/20 05:58:55;;;;;;;29.98;20.58;;;;;;;22.08;100.00;101312.38;5071683;28;20048;-36
2022/07/20 06:01:23;;;;;;;30.13;20.83;;;;;;;22.09;100.00;101313.19;5072402;28;20675;-33
2022/07/20 06:03:51;;;;;;;36.80;21.75;;;;;;;22.11;100.00;101317.31;5073144;28;20052;-38
2022/07/20 06:06:19;;;;;;;33.58;22.83;;;;;;;22.14;100.00;101321.47;5071270;28;20072;-31
2022/07/20 06:08:46;;;;;;;32.97;21.73;;;;;;;22.18;100.00;101314.66;5073056;28;20055;-38
2022/07/20 06:11:36;;;;;;;36.42;22.88;;;;;;;22.20;100.00;101317.94;5072236;28;20033;-34
2022/07/20 06:14:04;;;;;;;35.00;22.75;;;;;;;22.25;100.00;101319.69;5073495;28;20044;-31
2022/07/20 06:16:32;;;;;;;31.08;21.58;;;;;;;22.28;100.00;101321.81;5073517;28;20040;-30
2022/07/20 06:19:00;;;;;;;32.92;21.35;;;;;;;22.32;100.00;101340.63;5071808;28;20169;-36
2022/07/20 06:21:28;;;;;;;31.05;19.42;;;;;;;22.36;100.00;101352.09;5071564;28;20522;-31
2022/07/20 06:23:55;;;;;;;28.77;20.23;;;;;;;22.37;100.00;101362.28;5071370;28;20485;-38
2022/07/20 06:26:23;;;;;;;30.92;20.45;;;;;;;22.45;100.00;101366.94;5072847;28;20425;-31
2022/07/20 06:28:52;;;;;;;31.83;20.35;;;;;;;22.45;100.00;101366.09;5072798;28;20071;-35
2022/07/20 06:31:21;;;;;;;28.13;19.13;;;;;;;22.50;100.00;101357.31;5073163;28;20040;-38
2022/07/20 06:34:08;;;;;;;29.80;20.38;;;;;;;22.54;100.00;101355.38;5071475;28;20053;-33
2022/07/20 06:36:36;;;;;;;27.67;20.10;;;;;;;22.69;100.00;101371.59;5072996;28;20521;-36
2022/07/20 06:39:04;;;;;;;32.05;20.95;;;;;;;22.87;100.00;101377.75;5073354;28;20075;-31
2022/07/20 06:41:33;;;;;;;32.03;20.38;;;;;;;22.96;100.00;101376.38;5053374;28;20055;-36
2022/07/20 06:44:07;;;;;;;30.55;20.63;;;;;;;23.18;100.00;101371.16;5071377;28;20076;-31
2022/07/20 06:46:35;;;;;;;30.33;19.67;;;;;;;23.45;100.00;101381.50;5073326;28;20049;-32
2022/07/20 06:49:05;;;;;;;28.90;20.08;;;;;;;23.72;100.00;101381.69;5070895;28;20571;-32
2022/07/20 06:51:33;;;;;;;28.48;18.45;;;;;;;23.92;100.00;101389.84;5073272;28;20697;-36
2022/07/20 06:54:00;;;;;;;30.40;20.33;;;;;;;24.13;100.00;101406.53;5072806;28;20500;-33
2022/07/20 06:56:29;;;;;;;26.70;17.95;;;;;;;24.26;100.00;101410.88;5072432;28;20053;-36
2022/07/20 06:58:56;;;;;;;26.55;18.02;;;;;;;24.40;100.00;101407.47;5072594;28;20079;-39
2022/07/20 07:01:26;;;;;;;27.63;18.67;;;;;;;24.49;100.00;101419.47;5072474;28;20036;-39
2022/07/20 07:03:53;;;;;;;27.23;18.80;;;;;;;24.38;100.00;101424.13;5072440;28;20048;-39
2022/07/20 07:06:24;;;;;;;27.80;18.17;;;;;;;24.34;100.00;101423.25;5073141;28;20477;-37
2022/07/20 07:08:51;;;;;;;23.77;16.95;;;;;;;24.27;100.00;101418.25;5072024;28;20068;-40
2022/07/20 07:11:20;;;;;;;23.00;16.10;;;;;;;24.35;100.00;101439.19;5072543;28;20094;-40
2022/07/20 07:13:48;;;;;;;24.85;16.48;;;;;;;24.59;99.90;101429.41;5072398;28;20059;-33
2022/07/20 07:16:16;;;;;;;22.63;15.27;;;;;;;24.86;98.83;101427.41;5072007;28;20514;-41
2022/07/20 07:18:45;;;;;;;19.92;14.20;;;;;;;25.03;96.75;101439.16;5071887;28;20119;-33
2022/07/20 07:21:14;;;;;;;23.52;15.23;;;;;;;25.11;95.75;101440.09;5072751;28;20112;-36
2022/07/20 07:23:41;;;;;;;24.13;14.52;;;;;;;24.98;95.21;101456.59;5070469;28;20090;-37
2022/07/20 07:26:09;;;;;;;25.40;15.38;;;;;;;24.82;95.44;101467.31;5072295;28;20054;-39
2022/07/20 07:28:38;;;;;;;23.50;13.80;;;;;;;24.60;95.96;101525.22;5072475;28;20048;-36
2022/07/20 07:31:06;;;;;;;23.63;13.10;;;;;;;24.47;97.31;101483.81;5070919;28;20486;-33
2022/07/20 07:33:34;;;;;;;22.17;12.68;;;;;;;24.50;98.26;101526.69;5072057;28;20474;-34
2022/07/20 07:36:05;;;;;;;18.85;11.80;;;;;;;24.56;98.15;101522.31;5072194;28;20051;-32
2022/07/20 07:38:33;;;;;;;19.13;11.20;;;;;;;24.64;97.92;101512.69;5070445;28;20499;-38
2022/07/20 07:41:01;;;;;;;19.88;11.48;;;;;;;24.86;96.72;101513.88;5071874;28;20072;-33
2022/07/20 07:43:29;;;;;;;21.17;11.48;;;;;;;25.09;95.18;101518.78;5071856;28;20057;-33
2022/07/20 07:45:57;;;;;;;20.50;11.73;;;;;;;25.17;93.21;101540.56;5071589;28;20100;-41
2022/07/20 07:48:25;;;;;;;23.38;11.18;;;;;;;25.25;92.25;101546.00;5070542;28;20460;-37
2022/07/20 07:50:53;;;;;;;16.88;10.23;;;;;;;25.37;91.26;101550.72;5071218;28;20056;-33
2022/07/20 07:53:22;;;;;;;18.83;10.38;;;;;;;25.49;90.28;101556.19;5071822;28;20044;-43
2022/07/20 07:55:50;;;;;;;17.17;9.35;;;;;;;25.67;89.36;101559.34;5071440;28;20470;-33
2022/07/20 07:58:19;;;;;;;16.33;9.48;;;;;;;25.80;88.29;101552.19;5071386;28;20490;-32
2022/07/20 08:00:47;;;;;;;19.73;9.65;;;;;;;25.98;86.72;101558.19;5071395;28;20144;-34
2022/07/20 08:03:15;;;;;;;14.20;8.85;;;;;;;26.16;86.14;101547.81;5072074;28;20044;-36
2022/07/20 08:05:43;;;;;;;18.98;9.80;;;;;;;26.27;84.83;101548.75;5070999;28;20059;-35
2022/07/20 08:08:13;;;;;;;15.18;8.77;;;;;;;26.18;84.38;101545.34;5071537;28;20082;-40
2022/07/20 08:10:43;;;;;;;14.38;8.50;;;;;;;26.29;84.57;101540.63;5071658;28;20529;-34
2022/07/20 08:13:12;;;;;;;16.20;8.73;;;;;;;26.55;82.39;101545.44;5071548;28;20159;-35
2022/07/20 08:15:40;;;;;;;16.33;9.00;;;;;;;26.65;81.91;101552.47;5071153;28;20056;-36
2022/07/20 08:18:08;;;;;;;17.10;9.50;;;;;;;26.64;79.96;101563.09;5071773;28;20048;-40
2022/07/20 08:20:36;;;;;;;17.83;8.95;;;;;;;26.66;79.59;101566.41;5070430;28;20075;-32
2022/07/20 08:23:04;;;;;;;15.23;9.00;;;;;;;26.81;78.89;101564.50;5071534;28;20136;-33
2022/07/20 08:25:32;;;;;;;17.40;9.00;;;;;;;26.96;77.86;101557.75;5071378;28;20045;-38
2022/07/20 08:28:11;;;;;;;14.75;8.25;;;;;;;26.92;77.84;101578.97;5070999;28;20135;-43
2022/07/20 08:30:40;;;;;;;14.23;8.57;;;;;;;26.93;77.07;101578.56;5071472;28;20557;-34
2022/07/20 08:33:20;;;;;;;;;;;;;;;26.68;75.94;101580.34;5069927;28;20395;-35
2022/07/20 08:35:48;;;;;;;13.27;7.13;;;;;;;26.76;78.63;101580.03;5071279;28;19970;-34
2022/07/20 08:38:16;;;;;;;17.85;8.25;;;;;;;26.81;77.77;101578.00;5071192;28;20052;-32
2022/07/20 08:40:44;;;;;;;14.95;8.27;;;;;;;26.77;76.89;101572.25;5070662;28;20075;-34
2022/07/20 08:43:15;;;;;;;17.20;8.77;;;;;;;26.91;75.74;101586.72;5072441;28;20068;-42
2022/07/20 08:45:46;;;;;;;13.05;7.88;;;;;;;26.80;76.10;101591.50;5056057;28;20477;-34
2022/07/20 08:48:18;;;;;;;15.98;8.23;;;;;;;27.00;75.84;101598.69;5074665;28;20084;-41
2022/07/20 08:50:48;;;;;;;17.48;8.15;;;;;;;26.99;74.61;101602.78;5075621;28;20477;-34
2022/07/20 08:53:17;;;;;;;16.90;7.53;;;;;;;26.91;74.87;101605.94;5074918;28;20048;-33
2022/07/20 08:55:46;;;;;;;15.50;8.27;;;;;;;26.94;74.05;101605.16;5074681;28;20052;-33
2022/07/20 08:58:16;;;;;;;18.50;8.00;;;;;;;27.03;72.69;101605.69;5074794;28;20040;-40
2022/07/20 09:00:44;;;;;;;16.52;8.00;;;;;;;27.32;71.77;101609.66;5075253;28;20053;-38
2022/07/20 09:03:12;;;;;;;15.80;8.07;;;;;;;27.39;71.05;101609.69;5074628;28;20036;-35
2022/07/20 09:05:41;;;;;;;16.77;7.25;;;;;;;27.46;70.18;101598.31;5075417;28;20448;-35
2022/07/20 09:08:13;;;;;;;15.30;7.38;;;;;;;27.34;71.21;101598.63;5074243;28;20452;-39
2022/07/20 09:10:46;;;;;;;16.85;7.72;;;;;;;27.44;72.16;101592.97;5074834;28;20048;-37
2022/07/20 09:13:21;;;;;;;14.98;7.55;;;;;;;27.85;70.88;101592.06;5075007;28;20036;-34
2022/07/20 09:15:52;;;;;;;14.27;6.95;;;;;;;28.21;69.00;101593.94;5074777;28;20502;-34
2022/07/20 09:18:22;;;;;;;14.02;6.90;;;;;;;28.41;67.13;101597.31;5074462;28;20077;-39
2022/07/20 09:20:52;;;;;;;14.95;7.07;;;;;;;28.62;65.88;101608.88;5074883;28;20084;-38
2022/07/20 09:23:22;;;;;;;15.90;7.20;;;;;;;28.35;66.25;101598.94;5073838;28;20047;-36
2022/07/20 09:25:53;;;;;;;13.82;7.22;;;;;;;28.15;66.51;101600.47;5074802;28;20048;-37
2022/07/20 09:28:23;;;;;;;15.98;7.13;;;;;;;28.04;67.27;101591.78;5074518;28;20186;-35
2022/07/20 09:30:52;;;;;;;14.57;7.20;;;;;;;28.33;67.15;101585.00;5062863;28;20454;-40
2022/07/20 09:33:26;;;;;;;12.55;6.63;;;;;;;28.77;64.81;101589.66;5074354;28;20143;-39
2022/07/20 09:35:54;;;;;;;12.93;6.63;;;;;;;29.05;64.12;101578.22;5074474;28;20044;-38
2022/07/20 09:38:32;;;;;;;15.88;7.57;;;;;;;29.48;59.77;101592.66;5073886;28;20067;-40
2022/07/20 09:41:02;;;;;;;14.63;6.75;;;;;;;29.55;60.25;101588.97;5074423;28;20128;-32
2022/07/20 09:43:35;;;;;;;11.07;6.38;;;;;;;29.73;59.05;101592.63;5073784;28;20068;-35
2022/07/20 09:46:15;;;;;;;14.32;7.00;;;;;;;29.80;57.31;101598.38;5074486;28;20122;-38
2022/07/20 09:48:45;;;;;;;13.80;6.03;;;;;;;29.74;59.20;101606.63;5074063;28;20481;-36
2022/07/20 09:51:18;;;;;;;13.77;6.78;;;;;;;29.93;58.24;101593.84;5073991;28;20044;-36
2022/07/20 09:53:46;;;;;;;15.73;6.65;;;;;;;30.12;57.23;101592.59;5073463;28;20041;-35
2022/07/20 09:56:16;;;;;;;15.38;6.82;;;;;;;30.16;56.72;101602.03;5074458;28;20037;-37
2022/07/20 09:58:49;;;;;;;9.32;5.43;;;;;;;30.39;56.59;101596.56;5073638;28;20135;-41
2022/07/20 10:01:20;;;;;;;13.57;6.13;;;;;;;30.26;55.02;101603.22;5073266;28;20037;-37
2022/07/20 10:03:50;;;;;;;12.27;6.45;;;;;;;29.68;56.98;101587.31;5073040;28;20405;-38
2022/07/20 10:06:20;;;;;;;11.65;5.93;;;;;;;29.26;58.31;101582.34;5073384;28;20511;-36
2022/07/20 10:08:49;;;;;;;12.82;6.38;;;;;;;29.06;59.23;101584.81;5074059;28;20188;-43
2022/07/20 10:11:19;;;;;;;13.88;6.20;;;;;;;28.88;59.70;101584.78;5072438;28;20048;-37
2022/07/20 10:13:49;;;;;;;10.85;5.95;;;;;;;28.90;60.13;101584.38;5073870;28;20075;-40
2022/07/20 10:16:26;;;;;;;11.48;5.82;;;;;;;29.04;59.94;101595.88;5070793;28;20052;-34
2022/07/20 10:18:56;;;;;;;11.25;5.57;;;;;;;29.13;59.47;101588.53;5053404;28;20057;-36
2022/07/20 10:21:45;;;;;;;10.35;5.35;;;;;;;28.94;59.23;101567.97;5069600;28;20560;-37
2022/07/20 10:24:14;;;;;;;14.45;6.38;;;;;;;29.23;60.19;101578.25;5053664;28;20053;-37
2022/07/20 10:26:43;;;;;;;11.30;6.07;;;;;;;29.60;58.17;101606.63;5073078;28;20125;-35
2022/07/20 10:29:25;;;;;;;12.60;6.43;;;;;;;29.91;56.56;101621.38;5073508;28;20044;-40
2022/07/20 10:31:54;;;;;;;14.75;6.45;;;;;;;30.23;56.63;101647.25;5070828;28;20473;-38
2022/07/20 10:34:37;;;;;;;11.25;6.45;;;;;;;30.25;53.40;101671.50;5072494;28;20045;-37
2022/07/20 10:37:23;;;;;;;12.85;6.63;;;;;;;29.70;54.00;101674.84;5071313;28;20489;-38
2022/07/20 10:39:52;;;;;;;14.50;6.68;;;;;;;29.46;57.47;101667.84;5073108;28;20040;-37
2022/07/20 10:42:25;;;;;;;11.55;6.20;;;;;;;29.58;57.09;101683.03;5072871;28;20055;-38
2022/07/20 10:44:54;;;;;;;13.27;6.68;;;;;;;29.39;57.87;101687.97;5073310;28;20418;-38
2022/07/20 10:47:43;;;;;;;12.23;6.15;;;;;;;29.47;57.94;101677.28;5071483;28;20477;-34
2022/07/20 10:50:17;;;;;;;13.93;6.22;;;;;;;29.66;57.32;101667.44;5033101;28;20124;-34
2022/07/20 10:52:46;;;;;;;16.35;6.88;;;;;;;29.82;56.55;101667.84;5033154;28;20080;-36
2022/07/20 10:55:48;;;;;;;12.43;6.18;;;;;;;29.89;55.98;101664.97;5031466;28;21039;-38
2022/07/20 10:58:18;;;;;;;9.80;5.93;;;;;;;30.19;55.68;101667.41;5033296;28;20053;-37
2022/07/20 11:00:50;;;;;;;12.90;6.40;;;;;;;30.25;54.40;101690.84;5032233;28;20576;-41
2022/07/20 11:03:19;;;;;;;13.70;6.13;;;;;;;29.96;54.81;101692.94;5032851;28;20057;-38
2022/07/20 11:05:49;;;;;;;15.93;6.30;;;;;;;29.69;55.62;101690.47;5032293;28;20037;-37
2022/07/20 11:08:17;;;;;;;11.70;6.03;;;;;;;29.63;57.07;101700.72;5032537;28;20075;-41
2022/07/20 11:10:45;;;;;;;12.15;6.53;;;;;;;29.86;56.39;101708.13;5032685;28;20037;-38
2022/07/20 11:13:13;;;;;;;12.90;6.18;;;;;;;29.81;55.85;101713.06;5032725;28;20406;-37
2022/07/20 11:15:44;;;;;;;11.98;5.55;;;;;;;29.61;56.91;101723.31;5029076;28;20553;-34
2022/07/20 11:18:15;;;;;;;12.48;6.10;;;;;;;29.64;56.10;101713.88;5031769;28;20433;-39
2022/07/20 11:20:47;;;;;;;12.77;5.53;;;;;;;29.75;56.60;101714.72;5032889;28;20524;-35
2022/07/20 11:23:15;;;;;;;13.48;5.63;;;;;;;29.77;55.79;101726.66;5031656;28;20136;-39
2022/07/20 11:25:53;;;;;;;11.05;5.70;;;;;;;29.69;55.75;101712.66;5032798;28;20076;-32
2022/07/20 11:28:22;;;;;;;11.30;5.50;;;;;;;29.29;55.93;101717.50;5030854;28;20050;-35
2022/07/20 11:30:51;;;;;;;11.07;6.07;;;;;;;28.88;56.72;101734.19;5032028;28;20044;-33